sensor_id;sensor_type;location;lat;lon;timestamp;temperature;humidity
41469;DHT22;27206;47.032;15.484;2023-08-06T00:00:08;15.60;99.90
41469;DHT22;27206;47.032;15.484;2023-08-06T00:02:34;15.70;99.90
41469;DHT22;27206;47.032;15.484;2023-08-06T00:05:00;15.70;99.90
41469;DHT22;27206;47.032;15.484;2023-08-06T00:07:25;15.60;99.90
41469;DHT22;27206;47.032;15.484;2023-08-06T00:09:51;15.70;99.90
41469;DHT22;27206;47.032;15.484;2023-08-06T00:12:17;15.60;99.90
41469;DHT22;27206;47.032;15.484;2023-08-06T00:14:43;15.60;99.90
41469;DHT22;27206;47.032;15.484;2023-08-06T00:17:09;15.60;99.90
41469;DHT22;27206;47.032;15.484;2023-08-06T00:19:34;15.60;99.90
41469;DHT22;27206;47.032;15.484;2023-08-06T00:22:00;15.60;99.90
41469;DHT22;27206;47.032;15.484;2023-08-06T00:24:27;15.60;99.90
41469;DHT22;27206;47.032;15.484;2023-08-06T00:26:53;15.60;99.90
41469;DHT22;27206;47.032;15.484;2023-08-06T00:29:19;15.60;99.90
41469;DHT22;27206;47.032;15.484;2023-08-06T00:31:44;15.60;99.90
41469;DHT22;27206;47.032;15.484;2023-08-06T00:34:10;15.60;99.90
41469;DHT22;27206;47.032;15.484;2023-08-06T00:36:36;15.60;99.90
41469;DHT22;27206;47.032;15.484;2023-08-06T00:39:01;15.60;99.90
41469;DHT22;27206;47.032;15.484;2023-08-06T00:41:28;15.60;99.90
41469;DHT22;27206;47.032;15.484;2023-08-06T00:43:53;15.70;99.90
41469;DHT22;27206;47.032;15.484;2023-08-06T00:46:19;15.60;99.90
41469;DHT22;27206;47.032;15.484;2023-08-06T00:48:45;15.60;99.90
41469;DHT22;27206;47.032;15.484;2023-08-06T00:51:11;15.60;99.90
41469;DHT22;27206;47.032;15.484;2023-08-06T00:53:40;15.70;99.90
41469;DHT22;27206;47.032;15.484;2023-08-06T00:56:07;15.70;99.90
41469;DHT22;27206;47.032;15.484;2023-08-06T00:58:33;15.70;99.90
41469;DHT22;27206;47.032;15.484;2023-08-06T01:00:59;15.70;99.90
41469;DHT22;27206;47.032;15.484;2023-08-06T01:03:25;15.70;99.90
41469;DHT22;27206;47.032;15.484;2023-08-06T01:05:51;15.70;99.90
41469;DHT22;27206;47.032;15.484;2023-08-06T01:08:55;15.80;99.90
41469;DHT22;27206;47.032;15.484;2023-08-06T01:14:27;15.80;99.90
41469;DHT22;27206;47.032;15.484;2023-08-06T01:16:54;15.80;99.90
41469;DHT22;27206;47.032;15.484;2023-08-06T01:19:20;15.80;99.90
41469;DHT22;27206;47.032;15.484;2023-08-06T01:21:46;15.70;99.90
41469;DHT22;27206;47.032;15.484;2023-08-06T01:24:12;15.70;99.90
41469;DHT22;27206;47.032;15.484;2023-08-06T01:26:45;15.80;99.90
41469;DHT22;27206;47.032;15.484;2023-08-06T01:31:51;15.80;99.90
41469;DHT22;27206;47.032;15.484;2023-08-06T01:34:21;15.70;99.90
41469;DHT22;27206;47.032;15.484;2023-08-06T01:36:47;15.70;99.90
41469;DHT22;27206;47.032;15.484;2023-08-06T01:39:13;15.80;99.90
41469;DHT22;27206;47.032;15.484;2023-08-06T01:41:39;15.70;99.90
41469;DHT22;27206;47.032;15.484;2023-08-06T01:44:05;15.80;99.90
41469;DHT22;27206;47.032;15.484;2023-08-06T01:46:30;15.70;99.90
41469;DHT22;27206;47.032;15.484;2023-08-06T01:48:56;15.70;99.90
41469;DHT22;27206;47.032;15.484;2023-08-06T01:51:22;15.70;99.90
41469;DHT22;27206;47.032;15.484;2023-08-06T01:53:47;15.70;99.90
41469;DHT22;27206;47.032;15.484;2023-08-06T01:56:13;15.70;99.90
41469;DHT22;27206;47.032;15.484;2023-08-06T01:58:38;15.70;99.90
41469;DHT22;27206;47.032;15.484;2023-08-06T02:01:04;15.70;99.90
41469;DHT22;27206;47.032;15.484;2023-08-06T02:03:30;15.70;99.90
41469;DHT22;27206;47.032;15.484;2023-08-06T02:05:55;15.60;99.90
41469;DHT22;27206;47.032;15.484;2023-08-06T02:08:21;15.70;99.90
41469;DHT22;27206;47.032;15.484;2023-08-06T02:10:46;15.70;99.90
41469;DHT22;27206;47.032;15.484;2023-08-06T02:13:12;15.60;99.90
41469;DHT22;27206;47.032;15.484;2023-08-06T02:15:45;15.70;99.90
41469;DHT22;27206;47.032;15.484;2023-08-06T02:18:13;15.60;99.90
41469;DHT22;27206;47.032;15.484;2023-08-06T02:20:38;15.60;99.90
41469;DHT22;27206;47.032;15.484;2023-08-06T02:23:04;15.60;99.90
41469;DHT22;27206;47.032;15.484;2023-08-06T02:25:30;15.60;99.90
41469;DHT22;27206;47.032;15.484;2023-08-06T02:27:55;15.60;99.90
41469;DHT22;27206;47.032;15.484;2023-08-06T02:30:21;15.60;99.90
41469;DHT22;27206;47.032;15.484;2023-08-06T02:32:46;15.60;99.90
41469;DHT22;27206;47.032;15.484;2023-08-06T02:35:12;15.60;99.90
41469;DHT22;27206;47.032;15.484;2023-08-06T02:37:38;15.60;99.90
41469;DHT22;27206;47.032;15.484;2023-08-06T02:40:04;15.50;99.90
41469;DHT22;27206;47.032;15.484;2023-08-06T02:42:29;15.60;99.90
41469;DHT22;27206;47.032;15.484;2023-08-06T02:44:55;15.50;99.90
41469;DHT22;27206;47.032;15.484;2023-08-06T02:47:21;15.60;99.90
41469;DHT22;27206;47.032;15.484;2023-08-06T02:49:47;15.50;99.90
41469;DHT22;27206;47.032;15.484;2023-08-06T02:52:12;15.50;99.90
41469;DHT22;27206;47.032;15.484;2023-08-06T02:54:38;15.50;99.90
41469;DHT22;27206;47.032;15.484;2023-08-06T02:57:05;15.50;99.90
41469;DHT22;27206;47.032;15.484;2023-08-06T02:59:31;15.50;99.90
41469;DHT22;27206;47.032;15.484;2023-08-06T03:01:56;15.50;99.90
41469;DHT22;27206;47.032;15.484;2023-08-06T03:04:22;15.50;99.90
41469;DHT22;27206;47.032;15.484;2023-08-06T03:06:50;15.50;99.90
41469;DHT22;27206;47.032;15.484;2023-08-06T03:09:16;15.50;99.90
41469;DHT22;27206;47.032;15.484;2023-08-06T03:11:41;15.50;99.90
41469;DHT22;27206;47.032;15.484;2023-08-06T03:14:07;15.50;99.90
41469;DHT22;27206;47.032;15.484;2023-08-06T03:16:33;15.50;99.90
41469;DHT22;27206;47.032;15.484;2023-08-06T03:18:58;15.40;99.90
41469;DHT22;27206;47.032;15.484;2023-08-06T03:21:24;15.50;99.90
41469;DHT22;27206;47.032;15.484;2023-08-06T03:23:50;15.50;99.90
41469;DHT22;27206;47.032;15.484;2023-08-06T03:26:16;15.50;99.90
41469;DHT22;27206;47.032;15.484;2023-08-06T03:28:41;15.50;99.90
41469;DHT22;27206;47.032;15.484;2023-08-06T03:31:07;15.40;99.90
41469;DHT22;27206;47.032;15.484;2023-08-06T03:33:33;15.50;99.90
41469;DHT22;27206;47.032;15.484;2023-08-06T03:35:59;15.50;99.90
41469;DHT22;27206;47.032;15.484;2023-08-06T03:38:24;15.50;99.90
41469;DHT22;27206;47.032;15.484;2023-08-06T03:40:50;15.40;99.90
41469;DHT22;27206;47.032;15.484;2023-08-06T03:43:16;15.50;99.90
41469;DHT22;27206;47.032;15.484;2023-08-06T03:45:41;15.50;99.90
41469;DHT22;27206;47.032;15.484;2023-08-06T03:48:08;15.50;99.90
41469;DHT22;27206;47.032;15.484;2023-08-06T03:50:33;15.50;99.90
41469;DHT22;27206;47.032;15.484;2023-08-06T03:52:59;15.50;99.90
41469;DHT22;27206;47.032;15.484;2023-08-06T03:55:25;15.50;99.90
41469;DHT22;27206;47.032;15.484;2023-08-06T03:57:50;15.50;99.90
41469;DHT22;27206;47.032;15.484;2023-08-06T04:00:16;15.40;99.90
41469;DHT22;27206;47.032;15.484;2023-08-06T04:02:42;15.40;99.90
41469;DHT22;27206;47.032;15.484;2023-08-06T04:05:08;15.50;99.90
41469;DHT22;27206;47.032;15.484;2023-08-06T04:07:34;15.40;99.90
41469;DHT22;27206;47.032;15.484;2023-08-06T04:10:02;15.40;99.90
41469;DHT22;27206;47.032;15.484;2023-08-06T04:12:29;15.50;99.90
41469;DHT22;27206;47.032;15.484;2023-08-06T04:14:55;15.50;99.90
41469;DHT22;27206;47.032;15.484;2023-08-06T04:17:21;15.50;99.90
41469;DHT22;27206;47.032;15.484;2023-08-06T04:19:49;15.50;99.90
41469;DHT22;27206;47.032;15.484;2023-08-06T04:22:15;15.50;99.90
41469;DHT22;27206;47.032;15.484;2023-08-06T04:24:41;15.50;99.90
41469;DHT22;27206;47.032;15.484;2023-08-06T04:27:11;15.50;99.90
41469;DHT22;27206;47.032;15.484;2023-08-06T04:29:37;15.50;99.90
41469;DHT22;27206;47.032;15.484;2023-08-06T04:32:09;15.40;99.90
41469;DHT22;27206;47.032;15.484;2023-08-06T04:34:36;15.40;99.90
41469;DHT22;27206;47.032;15.484;2023-08-06T04:37:03;15.40;99.90
41469;DHT22;27206;47.032;15.484;2023-08-06T04:39:29;15.40;99.90
41469;DHT22;27206;47.032;15.484;2023-08-06T04:41:56;15.40;99.90
41469;DHT22;27206;47.032;15.484;2023-08-06T04:44:23;15.40;99.90
41469;DHT22;27206;47.032;15.484;2023-08-06T04:46:49;15.40;99.90
41469;DHT22;27206;47.032;15.484;2023-08-06T04:49:14;15.40;99.90
41469;DHT22;27206;47.032;15.484;2023-08-06T04:51:40;15.40;99.90
41469;DHT22;27206;47.032;15.484;2023-08-06T04:54:05;15.40;99.90
41469;DHT22;27206;47.032;15.484;2023-08-06T04:56:31;15.50;99.90
41469;DHT22;27206;47.032;15.484;2023-08-06T04:58:58;15.50;99.90
41469;DHT22;27206;47.032;15.484;2023-08-06T05:01:24;15.50;99.90
41469;DHT22;27206;47.032;15.484;2023-08-06T05:03:49;15.50;99.90
41469;DHT22;27206;47.032;15.484;2023-08-06T05:06:15;15.50;99.90
41469;DHT22;27206;47.032;15.484;2023-08-06T05:08:40;15.50;99.90
41469;DHT22;27206;47.032;15.484;2023-08-06T05:11:06;15.50;99.90
41469;DHT22;27206;47.032;15.484;2023-08-06T05:13:32;15.60;99.90
41469;DHT22;27206;47.032;15.484;2023-08-06T05:15:58;15.60;99.90
41469;DHT22;27206;47.032;15.484;2023-08-06T05:18:23;15.50;99.90
41469;DHT22;27206;47.032;15.484;2023-08-06T05:20:49;15.50;99.90
41469;DHT22;27206;47.032;15.484;2023-08-06T05:23:15;15.50;99.90
41469;DHT22;27206;47.032;15.484;2023-08-06T05:25:41;15.60;99.90
41469;DHT22;27206;47.032;15.484;2023-08-06T05:28:06;15.60;99.90
41469;DHT22;27206;47.032;15.484;2023-08-06T05:30:32;15.60;99.90
41469;DHT22;27206;47.032;15.484;2023-08-06T05:32:58;15.60;99.90
41469;DHT22;27206;47.032;15.484;2023-08-06T05:35:23;15.60;99.90
41469;DHT22;27206;47.032;15.484;2023-08-06T05:37:53;15.70;99.90
41469;DHT22;27206;47.032;15.484;2023-08-06T05:40:18;15.70;99.90
41469;DHT22;27206;47.032;15.484;2023-08-06T05:42:44;15.70;99.90
41469;DHT22;27206;47.032;15.484;2023-08-06T05:45:09;15.70;99.90
41469;DHT22;27206;47.032;15.484;2023-08-06T05:47:35;15.70;99.90
41469;DHT22;27206;47.032;15.484;2023-08-06T05:50:01;15.70;99.90
41469;DHT22;27206;47.032;15.484;2023-08-06T05:52:26;15.70;99.90
41469;DHT22;27206;47.032;15.484;2023-08-06T05:54:52;15.80;99.90
41469;DHT22;27206;47.032;15.484;2023-08-06T05:57:18;15.80;99.90
41469;DHT22;27206;47.032;15.484;2023-08-06T05:59:43;15.80;99.90
41469;DHT22;27206;47.032;15.484;2023-08-06T06:02:09;15.80;99.90
41469;DHT22;27206;47.032;15.484;2023-08-06T06:04:35;15.80;99.90
41469;DHT22;27206;47.032;15.484;2023-08-06T06:07:01;15.80;99.90
41469;DHT22;27206;47.032;15.484;2023-08-06T06:09:26;15.90;99.90
41469;DHT22;27206;47.032;15.484;2023-08-06T06:11:52;15.80;99.90
41469;DHT22;27206;47.032;15.484;2023-08-06T06:14:18;15.90;99.90
41469;DHT22;27206;47.032;15.484;2023-08-06T06:16:44;15.90;99.90
41469;DHT22;27206;47.032;15.484;2023-08-06T06:19:11;15.90;99.90
41469;DHT22;27206;47.032;15.484;2023-08-06T06:21:36;16.00;99.90
41469;DHT22;27206;47.032;15.484;2023-08-06T06:24:03;15.90;99.90
41469;DHT22;27206;47.032;15.484;2023-08-06T06:26:29;15.90;99.90
41469;DHT22;27206;47.032;15.484;2023-08-06T06:28:55;16.00;99.90
41469;DHT22;27206;47.032;15.484;2023-08-06T06:31:21;16.00;99.90
41469;DHT22;27206;47.032;15.484;2023-08-06T06:33:46;16.10;99.90
41469;DHT22;27206;47.032;15.484;2023-08-06T06:36:12;16.00;99.90
41469;DHT22;27206;47.032;15.484;2023-08-06T06:38:38;16.00;99.90
41469;DHT22;27206;47.032;15.484;2023-08-06T06:41:04;16.10;99.90
41469;DHT22;27206;47.032;15.484;2023-08-06T06:43:29;16.10;99.90
41469;DHT22;27206;47.032;15.484;2023-08-06T06:45:59;16.10;99.90
41469;DHT22;27206;47.032;15.484;2023-08-06T06:48:29;16.10;99.90
41469;DHT22;27206;47.032;15.484;2023-08-06T06:50:55;16.20;99.90
41469;DHT22;27206;47.032;15.484;2023-08-06T06:53:21;16.20;99.90
41469;DHT22;27206;47.032;15.484;2023-08-06T06:55:53;16.20;99.90
41469;DHT22;27206;47.032;15.484;2023-08-06T06:58:18;16.30;99.90
41469;DHT22;27206;47.032;15.484;2023-08-06T07:00:45;16.30;99.90
41469;DHT22;27206;47.032;15.484;2023-08-06T07:03:11;16.30;99.90
41469;DHT22;27206;47.032;15.484;2023-08-06T07:05:37;16.30;99.90
41469;DHT22;27206;47.032;15.484;2023-08-06T07:08:02;16.20;99.90
41469;DHT22;27206;47.032;15.484;2023-08-06T07:10:28;16.30;99.90
41469;DHT22;27206;47.032;15.484;2023-08-06T07:12:54;16.40;99.90
41469;DHT22;27206;47.032;15.484;2023-08-06T07:15:20;16.40;99.90
41469;DHT22;27206;47.032;15.484;2023-08-06T07:17:45;16.40;99.90
41469;DHT22;27206;47.032;15.484;2023-08-06T07:20:11;16.40;99.90
41469;DHT22;27206;47.032;15.484;2023-08-06T07:22:37;16.50;99.90
41469;DHT22;27206;47.032;15.484;2023-08-06T07:25:02;16.50;99.90
41469;DHT22;27206;47.032;15.484;2023-08-06T07:27:28;16.50;99.90
41469;DHT22;27206;47.032;15.484;2023-08-06T07:29:54;16.50;99.90
41469;DHT22;27206;47.032;15.484;2023-08-06T07:32:19;16.50;99.90
41469;DHT22;27206;47.032;15.484;2023-08-06T07:34:45;16.50;99.90
41469;DHT22;27206;47.032;15.484;2023-08-06T07:37:10;16.50;99.90
41469;DHT22;27206;47.032;15.484;2023-08-06T07:39:36;16.50;99.90
41469;DHT22;27206;47.032;15.484;2023-08-06T07:42:03;16.50;99.90
41469;DHT22;27206;47.032;15.484;2023-08-06T07:44:31;16.60;99.90
41469;DHT22;27206;47.032;15.484;2023-08-06T07:46:56;16.70;99.90
41469;DHT22;27206;47.032;15.484;2023-08-06T07:49:22;16.70;99.90
41469;DHT22;27206;47.032;15.484;2023-08-06T07:51:48;16.70;99.90
41469;DHT22;27206;47.032;15.484;2023-08-06T07:54:13;16.70;99.90
41469;DHT22;27206;47.032;15.484;2023-08-06T07:56:39;16.70;99.90
41469;DHT22;27206;47.032;15.484;2023-08-06T07:59:11;16.70;99.90
41469;DHT22;27206;47.032;15.484;2023-08-06T08:01:37;16.80;99.90
41469;DHT22;27206;47.032;15.484;2023-08-06T08:04:02;16.80;99.90
41469;DHT22;27206;47.032;15.484;2023-08-06T08:06:29;16.80;99.90
41469;DHT22;27206;47.032;15.484;2023-08-06T08:08:55;16.90;99.90
41469;DHT22;27206;47.032;15.484;2023-08-06T08:11:21;16.90;99.90
41469;DHT22;27206;47.032;15.484;2023-08-06T08:13:46;16.90;99.90
41469;DHT22;27206;47.032;15.484;2023-08-06T08:16:12;16.90;99.90
41469;DHT22;27206;47.032;15.484;2023-08-06T08:18:38;16.90;99.90
41469;DHT22;27206;47.032;15.484;2023-08-06T08:21:03;17.10;99.90
41469;DHT22;27206;47.032;15.484;2023-08-06T08:23:29;17.00;99.90
41469;DHT22;27206;47.032;15.484;2023-08-06T08:25:59;17.10;99.90
41469;DHT22;27206;47.032;15.484;2023-08-06T08:28:28;17.10;99.90
41469;DHT22;27206;47.032;15.484;2023-08-06T08:30:54;17.10;99.90
41469;DHT22;27206;47.032;15.484;2023-08-06T08:33:21;17.10;99.90
41469;DHT22;27206;47.032;15.484;2023-08-06T08:35:47;17.00;99.90
41469;DHT22;27206;47.032;15.484;2023-08-06T08:38:13;17.10;99.90
41469;DHT22;27206;47.032;15.484;2023-08-06T08:40:47;17.00;99.90
41469;DHT22;27206;47.032;15.484;2023-08-06T08:43:15;17.00;99.90
41469;DHT22;27206;47.032;15.484;2023-08-06T08:45:42;17.00;99.90
41469;DHT22;27206;47.032;15.484;2023-08-06T08:48:11;17.00;99.90
41469;DHT22;27206;47.032;15.484;2023-08-06T08:50:39;17.00;99.90
41469;DHT22;27206;47.032;15.484;2023-08-06T08:53:05;17.00;99.90
41469;DHT22;27206;47.032;15.484;2023-08-06T08:55:31;17.10;99.90
41469;DHT22;27206;47.032;15.484;2023-08-06T08:57:57;17.00;99.90
41469;DHT22;27206;47.032;15.484;2023-08-06T09:00:24;17.10;99.90
41469;DHT22;27206;47.032;15.484;2023-08-06T09:02:50;17.20;99.90
41469;DHT22;27206;47.032;15.484;2023-08-06T09:05:18;17.10;99.90
41469;DHT22;27206;47.032;15.484;2023-08-06T09:07:48;17.10;99.90
41469;DHT22;27206;47.032;15.484;2023-08-06T09:10:16;17.10;99.90
41469;DHT22;27206;47.032;15.484;2023-08-06T09:12:43;17.00;99.90
41469;DHT22;27206;47.032;15.484;2023-08-06T09:15:10;17.00;99.90
41469;DHT22;27206;47.032;15.484;2023-08-06T09:17:36;17.10;99.90
41469;DHT22;27206;47.032;15.484;2023-08-06T09:20:18;17.10;99.90
41469;DHT22;27206;47.032;15.484;2023-08-06T09:22:44;17.10;99.90
41469;DHT22;27206;47.032;15.484;2023-08-06T09:25:24;17.20;99.90
41469;DHT22;27206;47.032;15.484;2023-08-06T09:27:51;17.20;99.90
41469;DHT22;27206;47.032;15.484;2023-08-06T09:32:56;17.10;99.90
41469;DHT22;27206;47.032;15.484;2023-08-06T09:35:22;17.20;99.90
41469;DHT22;27206;47.032;15.484;2023-08-06T09:37:48;17.20;99.90
41469;DHT22;27206;47.032;15.484;2023-08-06T09:40:30;17.20;99.90
41469;DHT22;27206;47.032;15.484;2023-08-06T09:42:57;17.20;99.90
41469;DHT22;27206;47.032;15.484;2023-08-06T09:45:28;17.20;99.90
41469;DHT22;27206;47.032;15.484;2023-08-06T09:47:57;17.30;99.90
41469;DHT22;27206;47.032;15.484;2023-08-06T09:50:28;17.30;99.90
41469;DHT22;27206;47.032;15.484;2023-08-06T09:52:55;17.40;99.90
41469;DHT22;27206;47.032;15.484;2023-08-06T09:55:21;17.50;99.90
41469;DHT22;27206;47.032;15.484;2023-08-06T09:57:49;17.60;99.90
41469;DHT22;27206;47.032;15.484;2023-08-06T10:00:14;17.60;99.90
41469;DHT22;27206;47.032;15.484;2023-08-06T10:02:41;17.60;99.90
41469;DHT22;27206;47.032;15.484;2023-08-06T10:05:08;17.70;99.90
41469;DHT22;27206;47.032;15.484;2023-08-06T10:07:35;17.90;99.90
41469;DHT22;27206;47.032;15.484;2023-08-06T10:10:02;17.90;99.90
41469;DHT22;27206;47.032;15.484;2023-08-06T10:12:31;18.00;99.90
41469;DHT22;27206;47.032;15.484;2023-08-06T10:15:01;18.10;99.90
41469;DHT22;27206;47.032;15.484;2023-08-06T10:17:28;18.20;99.90
41469;DHT22;27206;47.032;15.484;2023-08-06T10:19:56;18.50;99.90
41469;DHT22;27206;47.032;15.484;2023-08-06T10:22:24;18.60;99.90
41469;DHT22;27206;47.032;15.484;2023-08-06T10:24:54;18.70;99.90
41469;DHT22;27206;47.032;15.484;2023-08-06T10:27:31;19.00;99.90
41469;DHT22;27206;47.032;15.484;2023-08-06T10:30:23;19.00;99.90
41469;DHT22;27206;47.032;15.484;2023-08-06T10:32:50;19.20;99.90
41469;DHT22;27206;47.032;15.484;2023-08-06T10:38:09;19.50;99.90
41469;DHT22;27206;47.032;15.484;2023-08-06T10:45:54;19.70;99.90
41469;DHT22;27206;47.032;15.484;2023-08-06T10:51:11;19.80;99.90
41469;DHT22;27206;47.032;15.484;2023-08-06T10:53:37;19.80;99.90
41469;DHT22;27206;47.032;15.484;2023-08-06T10:58:39;20.10;99.90
41469;DHT22;27206;47.032;15.484;2023-08-06T11:01:05;20.30;99.90
41469;DHT22;27206;47.032;15.484;2023-08-06T11:03:32;20.40;99.90
41469;DHT22;27206;47.032;15.484;2023-08-06T11:05:58;20.70;99.90
41469;DHT22;27206;47.032;15.484;2023-08-06T11:08:28;21.00;99.90
41469;DHT22;27206;47.032;15.484;2023-08-06T11:10:54;21.20;99.90
41469;DHT22;27206;47.032;15.484;2023-08-06T11:13:21;21.20;98.40
41469;DHT22;27206;47.032;15.484;2023-08-06T11:15:46;21.30;93.30
41469;DHT22;27206;47.032;15.484;2023-08-06T11:18:12;21.50;93.20
41469;DHT22;27206;47.032;15.484;2023-08-06T11:20:39;21.70;92.60
41469;DHT22;27206;47.032;15.484;2023-08-06T11:23:05;21.70;63.90
41469;DHT22;27206;47.032;15.484;2023-08-06T11:25:34;21.70;73.10
41469;DHT22;27206;47.032;15.484;2023-08-06T11:28:01;22.40;95.00
41469;DHT22;27206;47.032;15.484;2023-08-06T11:30:27;22.40;91.40
41469;DHT22;27206;47.032;15.484;2023-08-06T11:32:52;22.40;68.20
41469;DHT22;27206;47.032;15.484;2023-08-06T11:35:18;22.50;84.30
41469;DHT22;27206;47.032;15.484;2023-08-06T11:37:45;23.00;43.90
41469;DHT22;27206;47.032;15.484;2023-08-06T11:40:12;23.20;59.00
41469;DHT22;27206;47.032;15.484;2023-08-06T11:42:46;22.90;42.80
41469;DHT22;27206;47.032;15.484;2023-08-06T11:45:13;22.70;12.10
41469;DHT22;27206;47.032;15.484;2023-08-06T11:47:39;22.00;26.60
41469;DHT22;27206;47.032;15.484;2023-08-06T11:50:08;21.90;36.80
41469;DHT22;27206;47.032;15.484;2023-08-06T11:52:34;22.10;51.00
41469;DHT22;27206;47.032;15.484;2023-08-06T11:55:07;22.80;47.70
41469;DHT22;27206;47.032;15.484;2023-08-06T11:57:36;23.40;1.00
41469;DHT22;27206;47.032;15.484;2023-08-06T12:00:08;23.90;1.00
41469;DHT22;27206;47.032;15.484;2023-08-06T12:02:34;24.30;1.00
41469;DHT22;27206;47.032;15.484;2023-08-06T12:05:11;25.10;3.80
41469;DHT22;27206;47.032;15.484;2023-08-06T12:07:38;25.50;9.30
41469;DHT22;27206;47.032;15.484;2023-08-06T12:10:05;25.60;1.00
41469;DHT22;27206;47.032;15.484;2023-08-06T12:12:31;25.70;1.00
41469;DHT22;27206;47.032;15.484;2023-08-06T12:14:57;25.90;1.00
41469;DHT22;27206;47.032;15.484;2023-08-06T12:17:26;25.40;1.00
41469;DHT22;27206;47.032;15.484;2023-08-06T12:19:52;25.30;1.00
41469;DHT22;27206;47.032;15.484;2023-08-06T12:22:18;25.10;1.00
41469;DHT22;27206;47.032;15.484;2023-08-06T12:24:44;24.60;1.00
41469;DHT22;27206;47.032;15.484;2023-08-06T12:27:11;24.10;1.00
41469;DHT22;27206;47.032;15.484;2023-08-06T12:29:44;25.10;1.00
41469;DHT22;27206;47.032;15.484;2023-08-06T12:32:11;25.20;1.00
41469;DHT22;27206;47.032;15.484;2023-08-06T12:34:41;24.60;1.00
41469;DHT22;27206;47.032;15.484;2023-08-06T12:37:07;24.10;1.00
41469;DHT22;27206;47.032;15.484;2023-08-06T12:39:37;24.00;1.00
41469;DHT22;27206;47.032;15.484;2023-08-06T12:42:04;23.70;1.00
41469;DHT22;27206;47.032;15.484;2023-08-06T12:44:31;23.80;1.00
41469;DHT22;27206;47.032;15.484;2023-08-06T12:46:56;24.20;1.00
41469;DHT22;27206;47.032;15.484;2023-08-06T12:49:22;23.90;1.00
41469;DHT22;27206;47.032;15.484;2023-08-06T12:51:52;23.50;1.00
41469;DHT22;27206;47.032;15.484;2023-08-06T12:54:21;23.20;1.00
41469;DHT22;27206;47.032;15.484;2023-08-06T12:56:48;23.40;1.00
41469;DHT22;27206;47.032;15.484;2023-08-06T12:59:15;23.20;1.00
41469;DHT22;27206;47.032;15.484;2023-08-06T13:01:41;22.90;1.00
41469;DHT22;27206;47.032;15.484;2023-08-06T13:04:07;22.90;1.00
41469;DHT22;27206;47.032;15.484;2023-08-06T13:06:33;23.00;1.00
41469;DHT22;27206;47.032;15.484;2023-08-06T13:09:03;23.40;1.00
41469;DHT22;27206;47.032;15.484;2023-08-06T13:11:30;24.20;1.00
41469;DHT22;27206;47.032;15.484;2023-08-06T13:14:07;25.20;1.00
41469;DHT22;27206;47.032;15.484;2023-08-06T13:16:33;26.20;1.00
41469;DHT22;27206;47.032;15.484;2023-08-06T13:18:59;26.20;1.00
41469;DHT22;27206;47.032;15.484;2023-08-06T13:21:34;26.40;1.00
41469;DHT22;27206;47.032;15.484;2023-08-06T13:24:01;26.70;1.00
41469;DHT22;27206;47.032;15.484;2023-08-06T13:26:31;26.80;1.00
41469;DHT22;27206;47.032;15.484;2023-08-06T13:28:58;27.00;1.00
41469;DHT22;27206;47.032;15.484;2023-08-06T13:31:24;27.90;1.00
41469;DHT22;27206;47.032;15.484;2023-08-06T13:33:49;28.20;1.00
41469;DHT22;27206;47.032;15.484;2023-08-06T13:36:16;28.10;1.00
41469;DHT22;27206;47.032;15.484;2023-08-06T13:38:42;28.60;1.00
41469;DHT22;27206;47.032;15.484;2023-08-06T13:41:07;28.90;99.90
41469;DHT22;27206;47.032;15.484;2023-08-06T13:43:33;29.00;1.00
41469;DHT22;27206;47.032;15.484;2023-08-06T13:45:59;29.40;99.90
41469;DHT22;27206;47.032;15.484;2023-08-06T13:48:24;29.90;99.90
41469;DHT22;27206;47.032;15.484;2023-08-06T13:50:50;30.00;99.90
41469;DHT22;27206;47.032;15.484;2023-08-06T13:53:15;29.70;99.90
41469;DHT22;27206;47.032;15.484;2023-08-06T13:55:41;27.90;99.90
41469;DHT22;27206;47.032;15.484;2023-08-06T13:58:07;27.70;99.90
41469;DHT22;27206;47.032;15.484;2023-08-06T14:00:32;27.30;1.00
41469;DHT22;27206;47.032;15.484;2023-08-06T14:02:58;26.80;1.00
41469;DHT22;27206;47.032;15.484;2023-08-06T14:05:24;26.20;1.00
41469;DHT22;27206;47.032;15.484;2023-08-06T14:07:50;25.50;1.00
41469;DHT22;27206;47.032;15.484;2023-08-06T14:10:15;25.30;1.00
41469;DHT22;27206;47.032;15.484;2023-08-06T14:12:41;24.70;1.00
41469;DHT22;27206;47.032;15.484;2023-08-06T14:15:07;24.70;1.00
41469;DHT22;27206;47.032;15.484;2023-08-06T14:17:33;24.30;1.00
41469;DHT22;27206;47.032;15.484;2023-08-06T14:19:58;24.10;1.00
41469;DHT22;27206;47.032;15.484;2023-08-06T14:22:26;23.80;1.00
41469;DHT22;27206;47.032;15.484;2023-08-06T14:24:51;23.70;1.00
41469;DHT22;27206;47.032;15.484;2023-08-06T14:27:17;23.80;1.00
41469;DHT22;27206;47.032;15.484;2023-08-06T14:29:43;23.70;1.00
41469;DHT22;27206;47.032;15.484;2023-08-06T14:32:08;23.60;1.00
41469;DHT22;27206;47.032;15.484;2023-08-06T14:34:34;23.60;1.00
41469;DHT22;27206;47.032;15.484;2023-08-06T14:37:00;23.60;1.00
41469;DHT22;27206;47.032;15.484;2023-08-06T14:39:26;23.60;1.00
41469;DHT22;27206;47.032;15.484;2023-08-06T14:41:52;23.80;1.00
41469;DHT22;27206;47.032;15.484;2023-08-06T14:44:21;24.00;1.00
41469;DHT22;27206;47.032;15.484;2023-08-06T14:46:47;23.80;1.00
41469;DHT22;27206;47.032;15.484;2023-08-06T14:49:12;24.10;1.00
41469;DHT22;27206;47.032;15.484;2023-08-06T14:51:38;24.10;1.00
41469;DHT22;27206;47.032;15.484;2023-08-06T14:54:04;25.10;1.00
41469;DHT22;27206;47.032;15.484;2023-08-06T14:56:30;25.30;1.00
41469;DHT22;27206;47.032;15.484;2023-08-06T14:58:55;25.30;1.00
41469;DHT22;27206;47.032;15.484;2023-08-06T15:01:21;25.10;1.00
41469;DHT22;27206;47.032;15.484;2023-08-06T15:03:47;25.70;1.00
41469;DHT22;27206;47.032;15.484;2023-08-06T15:06:12;26.20;1.00
41469;DHT22;27206;47.032;15.484;2023-08-06T15:08:38;26.80;1.00
41469;DHT22;27206;47.032;15.484;2023-08-06T15:11:03;26.90;1.00
41469;DHT22;27206;47.032;15.484;2023-08-06T15:13:29;26.60;1.00
41469;DHT22;27206;47.032;15.484;2023-08-06T15:15:55;26.70;1.00
41469;DHT22;27206;47.032;15.484;2023-08-06T15:18:21;26.70;1.00
41469;DHT22;27206;47.032;15.484;2023-08-06T15:20:46;26.30;1.00
41469;DHT22;27206;47.032;15.484;2023-08-06T15:23:12;26.00;1.00
41469;DHT22;27206;47.032;15.484;2023-08-06T15:25:38;26.40;1.00
41469;DHT22;27206;47.032;15.484;2023-08-06T15:28:03;26.80;1.00
41469;DHT22;27206;47.032;15.484;2023-08-06T15:30:30;26.40;1.00
41469;DHT22;27206;47.032;15.484;2023-08-06T15:32:56;26.60;1.00
41469;DHT22;27206;47.032;15.484;2023-08-06T15:35:22;26.40;1.00
41469;DHT22;27206;47.032;15.484;2023-08-06T15:37:47;26.70;99.90